createdAt,value
2022-10-05T00:00:46.888Z,2.08
2022-10-05T00:10:52.782Z,4.68
2022-10-05T00:20:59.212Z,1.58
2022-10-05T00:31:13.511Z,2.92
2022-10-05T00:41:22.894Z,2.78
2022-10-05T00:51:29.568Z,2.88
2022-10-05T01:01:37.611Z,2.55
2022-10-05T01:11:48.216Z,2.75
2022-10-05T01:21:57.856Z,2.67
2022-10-05T01:32:14.130Z,2.85
2022-10-05T01:42:30.413Z,2.40
2022-10-05T01:52:48.591Z,1.95
2022-10-05T02:03:00.114Z,2.53
2022-10-05T02:13:15.901Z,2.15
2022-10-05T02:23:23.577Z,2.47
2022-10-05T02:33:33.886Z,1.73
2022-10-05T02:43:51.784Z,1.52
2022-10-05T02:54:10.935Z,1.77
2022-10-05T03:14:49.561Z,2.08
2022-10-05T03:25:15.680Z,2.53
2022-10-05T03:35:28.457Z,2.60
2022-10-05T03:45:38.199Z,1.63
2022-10-05T03:55:49.874Z,1.60
2022-10-05T04:05:57.992Z,2.72
2022-10-05T04:16:26.104Z,2.72
2022-10-05T04:26:44.731Z,2.60
2022-10-05T04:37:02.002Z,3.92
2022-10-05T04:47:22.943Z,2.67
2022-10-05T04:57:38.945Z,4.55
2022-10-05T05:07:50.371Z,2.70
2022-10-05T05:18:21.497Z,3.42
2022-10-05T05:28:32.940Z,4.13
2022-10-05T05:38:42.784Z,3.75
2022-10-05T05:48:48.532Z,3.25
2022-10-05T05:58:58.071Z,5.22
2022-10-05T06:09:12.172Z,5.53
2022-10-05T06:19:20.222Z,4.47
2022-10-05T06:29:29.583Z,3.20
2022-10-05T06:40:07.972Z,6.82
2022-10-05T06:50:20.497Z,7.10
2022-10-05T07:00:30.191Z,7.07
2022-10-05T07:10:41.293Z,6.90
2022-10-05T07:31:13.961Z,5.15
2022-10-05T07:41:30.546Z,4.72
2022-10-05T07:51:39.900Z,3.50
2022-10-05T08:01:53.243Z,3.40
2022-10-05T08:12:08.698Z,2.88
2022-10-05T08:22:31.929Z,2.50
2022-10-05T08:32:49.160Z,3.05
2022-10-05T08:43:07.242Z,4.75
2022-10-05T08:53:29.876Z,4.38
2022-10-05T09:04:14.869Z,6.05
2022-10-05T09:14:41.744Z,4.78
2022-10-05T09:25:25.776Z,4.47
2022-10-05T09:36:22.385Z,3.70
2022-10-05T09:46:56.694Z,2.35
2022-10-05T09:57:19.152Z,2.50
2022-10-05T10:08:08.052Z,2.80
2022-10-05T10:18:47.441Z,2.08
2022-10-05T10:39:51.469Z,1.05
2022-10-05T10:50:24.798Z,1.15
2022-10-05T11:00:56.817Z,1.42
2022-10-05T11:21:55.616Z,2.35
2022-10-05T11:32:35.856Z,2.38
2022-10-05T11:43:17.451Z,2.88
2022-10-05T11:53:27.714Z,2.30
2022-10-05T12:03:49.361Z,2.73
2022-10-05T12:14:05.608Z,2.30
2022-10-05T12:24:26.888Z,1.70
2022-10-05T12:34:52.427Z,2.08
2022-10-05T12:45:17.594Z,2.17
2022-10-05T12:55:28.914Z,1.58
2022-10-05T13:05:45.722Z,2.25
2022-10-05T13:16:07.373Z,2.60
2022-10-05T13:26:21.234Z,2.30
2022-10-05T13:36:38.390Z,2.38
2022-10-05T13:46:58.027Z,2.10
2022-10-05T13:57:24.587Z,1.67
2022-10-05T14:07:38.512Z,2.53
2022-10-05T14:17:44.521Z,2.67
2022-10-05T14:27:56.649Z,2.55
2022-10-05T14:38:10.433Z,3.00
2022-10-05T14:48:14.662Z,1.67
2022-10-05T14:58:38.640Z,1.67
2022-10-05T15:08:56.698Z,1.13
2022-10-05T15:19:15.487Z,0.60
2022-10-05T15:29:43.212Z,1.45
2022-10-05T15:39:53.893Z,1.08
2022-10-05T15:50:07.518Z,2.07
2022-10-05T16:00:15.847Z,3.63
2022-10-05T16:10:22.882Z,2.13
2022-10-05T16:20:41.871Z,3.83
2022-10-05T16:31:03.351Z,2.97
2022-10-05T16:41:19.097Z,3.00
2022-10-05T16:51:35.072Z,3.75
2022-10-05T17:01:54.369Z,3.92
2022-10-05T17:12:29.855Z,2.80
2022-10-05T17:22:51.868Z,2.80
2022-10-05T17:32:59.075Z,3.45
2022-10-05T17:43:26.611Z,3.70
2022-10-05T17:53:56.624Z,3.63
2022-10-05T18:04:38.992Z,2.97
2022-10-05T18:14:57.076Z,4.10
2022-10-05T18:25:07.880Z,3.25
2022-10-05T18:35:31.482Z,2.80
2022-10-05T18:45:54.269Z,3.25
2022-10-05T19:07:16.341Z,3.33
2022-10-05T19:17:27.531Z,3.50
2022-10-05T19:27:44.742Z,3.47
2022-10-05T19:38:01.980Z,2.80
2022-10-05T19:48:22.719Z,2.42
2022-10-05T19:58:31.063Z,3.35
2022-10-05T20:08:46.123Z,2.40
2022-10-05T20:19:08.365Z,4.22
2022-10-05T20:29:16.932Z,3.83
2022-10-05T20:39:37.068Z,3.65
2022-10-05T20:49:42.994Z,2.95
2022-10-05T20:59:46.036Z,2.72
2022-10-05T21:09:51.210Z,2.97
2022-10-05T21:19:54.437Z,3.72
2022-10-05T21:29:59.066Z,3.50
2022-10-05T21:40:02.007Z,2.42
2022-10-05T21:50:08.861Z,2.95
2022-10-05T22:00:14.501Z,3.60
2022-10-05T22:10:19.446Z,3.92
2022-10-05T22:20:24.190Z,2.25
2022-10-05T22:30:29.907Z,3.13
2022-10-05T22:40:34.203Z,3.53
2022-10-05T22:50:40.116Z,2.75
2022-10-05T23:00:59.062Z,3.45
2022-10-05T23:11:05.361Z,2.72
2022-10-05T23:21:10.123Z,3.83
2022-10-05T23:31:17.119Z,2.95
2022-10-05T23:41:20.819Z,4.35
2022-10-05T23:51:25.332Z,3.42
